Letham, United Kingdom
Current Conditions -  °F | °C
As of 4:20 PM on Wednesday 26 Nov 2014 (Local Time) from EGPN Reporting Station
Light Rain Light Rain  
Wind Chill: 43°   Ceiling: 1100
Heat Index: 43°   Visibility: 1.5mi
Dew Point: 43°   Wind: 2mph
Humidity: 100%   Direction: 300°WNW
Pressure: 29.88"   Gusts: NA
Location:  56.62°N, 2.77°W
Report Text: EGPN 261620Z 30002KT 2500 -RADZ BKN011 BKN018 06/06 Q1012
Loading
Personal Weather Stations






























Interactive Weather Map New forecast layout! Learn more

10-Day Weather Forecast

Advertisements
Track Severe Weather on mobile